sensor_id;sensor_type;location;lat;lon;timestamp;temperature;humidity
19610;DHT22;9952;47.122;-1.638;2022-11-10T00:02:18;7.80;99.90
19610;DHT22;9952;47.122;-1.638;2022-11-10T00:06:59;7.80;99.90
19610;DHT22;9952;47.122;-1.638;2022-11-10T00:11:41;7.80;99.90
19610;DHT22;9952;47.122;-1.638;2022-11-10T00:16:22;7.80;99.90
19610;DHT22;9952;47.122;-1.638;2022-11-10T00:21:21;7.80;99.90
19610;DHT22;9952;47.122;-1.638;2022-11-10T00:26:03;7.70;99.90
19610;DHT22;9952;47.122;-1.638;2022-11-10T00:30:49;7.60;99.90
19610;DHT22;9952;47.122;-1.638;2022-11-10T00:35:30;7.60;99.90
19610;DHT22;9952;47.122;-1.638;2022-11-10T00:40:11;7.60;99.90
19610;DHT22;9952;47.122;-1.638;2022-11-10T00:44:52;7.60;99.90
19610;DHT22;9952;47.122;-1.638;2022-11-10T00:49:33;7.60;99.90
19610;DHT22;9952;47.122;-1.638;2022-11-10T00:54:13;7.60;99.90
19610;DHT22;9952;47.122;-1.638;2022-11-10T00:58:54;7.50;99.90
19610;DHT22;9952;47.122;-1.638;2022-11-10T01:03:35;7.50;99.90
19610;DHT22;9952;47.122;-1.638;2022-11-10T01:08:16;7.50;99.90
19610;DHT22;9952;47.122;-1.638;2022-11-10T01:12:57;7.50;99.90
19610;DHT22;9952;47.122;-1.638;2022-11-10T01:17:38;7.50;99.90
19610;DHT22;9952;47.122;-1.638;2022-11-10T01:22:18;7.50;99.90
19610;DHT22;9952;47.122;-1.638;2022-11-10T01:26:59;7.40;99.90
19610;DHT22;9952;47.122;-1.638;2022-11-10T01:31:40;7.40;99.90
19610;DHT22;9952;47.122;-1.638;2022-11-10T01:36:21;7.40;99.90
19610;DHT22;9952;47.122;-1.638;2022-11-10T01:41:03;7.40;99.90
19610;DHT22;9952;47.122;-1.638;2022-11-10T01:46:05;7.40;99.90
19610;DHT22;9952;47.122;-1.638;2022-11-10T01:50:46;7.30;99.90
19610;DHT22;9952;47.122;-1.638;2022-11-10T01:55:28;7.30;99.90
19610;DHT22;9952;47.122;-1.638;2022-11-10T02:00:10;7.30;99.90
19610;DHT22;9952;47.122;-1.638;2022-11-10T02:04:52;7.20;99.90
19610;DHT22;9952;47.122;-1.638;2022-11-10T02:09:33;7.30;99.90
19610;DHT22;9952;47.122;-1.638;2022-11-10T02:14:14;7.20;99.90
19610;DHT22;9952;47.122;-1.638;2022-11-10T02:18:56;7.20;99.90
19610;DHT22;9952;47.122;-1.638;2022-11-10T02:28:18;7.20;99.90
19610;DHT22;9952;47.122;-1.638;2022-11-10T02:32:59;7.10;99.90
19610;DHT22;9952;47.122;-1.638;2022-11-10T02:37:39;7.10;99.90
19610;DHT22;9952;47.122;-1.638;2022-11-10T02:42:20;7.00;99.90
19610;DHT22;9952;47.122;-1.638;2022-11-10T02:47:01;7.00;99.90
19610;DHT22;9952;47.122;-1.638;2022-11-10T02:51:42;7.00;99.90
19610;DHT22;9952;47.122;-1.638;2022-11-10T02:56:22;6.90;99.90
19610;DHT22;9952;47.122;-1.638;2022-11-10T03:01:04;6.90;99.90
19610;DHT22;9952;47.122;-1.638;2022-11-10T03:05:46;6.90;99.90
19610;DHT22;9952;47.122;-1.638;2022-11-10T03:10:28;6.90;99.90
19610;DHT22;9952;47.122;-1.638;2022-11-10T03:15:09;6.80;99.90
19610;DHT22;9952;47.122;-1.638;2022-11-10T03:19:50;6.80;99.90
19610;DHT22;9952;47.122;-1.638;2022-11-10T03:24:30;6.80;99.90
19610;DHT22;9952;47.122;-1.638;2022-11-10T03:29:11;6.80;99.90
19610;DHT22;9952;47.122;-1.638;2022-11-10T03:33:52;6.70;99.90
19610;DHT22;9952;47.122;-1.638;2022-11-10T03:38:33;6.70;99.90
19610;DHT22;9952;47.122;-1.638;2022-11-10T03:43:13;6.70;99.90
19610;DHT22;9952;47.122;-1.638;2022-11-10T03:47:55;6.70;99.90
19610;DHT22;9952;47.122;-1.638;2022-11-10T03:52:38;6.60;99.90
19610;DHT22;9952;47.122;-1.638;2022-11-10T03:57:19;6.60;99.90
19610;DHT22;9952;47.122;-1.638;2022-11-10T04:02:00;6.60;99.90
19610;DHT22;9952;47.122;-1.638;2022-11-10T04:06:41;6.60;99.90
19610;DHT22;9952;47.122;-1.638;2022-11-10T04:11:40;6.60;99.90
19610;DHT22;9952;47.122;-1.638;2022-11-10T04:16:56;6.50;99.90
19610;DHT22;9952;47.122;-1.638;2022-11-10T04:21:36;6.50;99.90
19610;DHT22;9952;47.122;-1.638;2022-11-10T04:26:17;6.50;99.90
19610;DHT22;9952;47.122;-1.638;2022-11-10T04:31:12;6.50;99.90
19610;DHT22;9952;47.122;-1.638;2022-11-10T04:35:53;6.50;99.90
19610;DHT22;9952;47.122;-1.638;2022-11-10T04:40:33;6.50;99.90
19610;DHT22;9952;47.122;-1.638;2022-11-10T04:45:14;6.50;99.90
19610;DHT22;9952;47.122;-1.638;2022-11-10T04:49:55;6.50;99.90
19610;DHT22;9952;47.122;-1.638;2022-11-10T04:54:36;6.40;99.90
19610;DHT22;9952;47.122;-1.638;2022-11-10T04:59:16;6.40;99.90
19610;DHT22;9952;47.122;-1.638;2022-11-10T05:03:57;6.40;99.90
19610;DHT22;9952;47.122;-1.638;2022-11-10T05:08:39;6.30;99.90
19610;DHT22;9952;47.122;-1.638;2022-11-10T05:13:20;6.30;99.90
19610;DHT22;9952;47.122;-1.638;2022-11-10T05:18:00;6.30;99.90
19610;DHT22;9952;47.122;-1.638;2022-11-10T05:22:46;6.20;99.90
19610;DHT22;9952;47.122;-1.638;2022-11-10T05:27:46;6.20;99.90
19610;DHT22;9952;47.122;-1.638;2022-11-10T05:32:27;6.20;99.90
19610;DHT22;9952;47.122;-1.638;2022-11-10T05:37:08;6.20;99.90
19610;DHT22;9952;47.122;-1.638;2022-11-10T05:41:49;6.20;99.90
19610;DHT22;9952;47.122;-1.638;2022-11-10T05:46:30;6.20;99.90
19610;DHT22;9952;47.122;-1.638;2022-11-10T05:51:11;6.20;99.90
19610;DHT22;9952;47.122;-1.638;2022-11-10T05:55:52;6.20;99.90
19610;DHT22;9952;47.122;-1.638;2022-11-10T06:00:33;6.20;99.90
19610;DHT22;9952;47.122;-1.638;2022-11-10T06:05:15;6.20;99.90
19610;DHT22;9952;47.122;-1.638;2022-11-10T06:09:55;6.20;99.90
19610;DHT22;9952;47.122;-1.638;2022-11-10T06:14:36;6.20;99.90
19610;DHT22;9952;47.122;-1.638;2022-11-10T06:19:17;6.10;99.90
19610;DHT22;9952;47.122;-1.638;2022-11-10T06:23:57;6.10;99.90
19610;DHT22;9952;47.122;-1.638;2022-11-10T06:28:38;6.10;99.90
19610;DHT22;9952;47.122;-1.638;2022-11-10T06:33:19;6.10;99.90
19610;DHT22;9952;47.122;-1.638;2022-11-10T06:38:09;6.10;99.90
19610;DHT22;9952;47.122;-1.638;2022-11-10T06:42:51;6.20;99.90
19610;DHT22;9952;47.122;-1.638;2022-11-10T06:47:31;6.10;99.90
19610;DHT22;9952;47.122;-1.638;2022-11-10T06:52:12;6.10;99.90
19610;DHT22;9952;47.122;-1.638;2022-11-10T06:56:53;6.10;99.90
19610;DHT22;9952;47.122;-1.638;2022-11-10T07:01:33;6.20;99.90
19610;DHT22;9952;47.122;-1.638;2022-11-10T07:06:14;6.20;99.90
19610;DHT22;9952;47.122;-1.638;2022-11-10T07:10:55;6.20;99.90
19610;DHT22;9952;47.122;-1.638;2022-11-10T07:15:36;6.10;99.90
19610;DHT22;9952;47.122;-1.638;2022-11-10T07:20:17;6.20;99.90
19610;DHT22;9952;47.122;-1.638;2022-11-10T07:24:58;6.20;99.90
19610;DHT22;9952;47.122;-1.638;2022-11-10T07:29:38;6.20;99.90
19610;DHT22;9952;47.122;-1.638;2022-11-10T07:34:19;6.20;99.90
19610;DHT22;9952;47.122;-1.638;2022-11-10T07:39:00;6.30;99.90
19610;DHT22;9952;47.122;-1.638;2022-11-10T07:43:41;6.40;99.90
19610;DHT22;9952;47.122;-1.638;2022-11-10T07:48:21;6.50;99.90
19610;DHT22;9952;47.122;-1.638;2022-11-10T07:53:08;6.70;99.90
19610;DHT22;9952;47.122;-1.638;2022-11-10T07:57:49;6.80;99.90
19610;DHT22;9952;47.122;-1.638;2022-11-10T08:02:30;7.00;99.90
19610;DHT22;9952;47.122;-1.638;2022-11-10T08:07:11;7.20;99.90
19610;DHT22;9952;47.122;-1.638;2022-11-10T08:11:51;7.40;99.90
19610;DHT22;9952;47.122;-1.638;2022-11-10T08:16:32;7.60;99.90
19610;DHT22;9952;47.122;-1.638;2022-11-10T08:21:13;7.80;99.90
19610;DHT22;9952;47.122;-1.638;2022-11-10T08:25:57;8.10;99.90
19610;DHT22;9952;47.122;-1.638;2022-11-10T08:30:39;8.40;99.90
19610;DHT22;9952;47.122;-1.638;2022-11-10T08:35:22;8.80;99.90
19610;DHT22;9952;47.122;-1.638;2022-11-10T08:40:03;9.30;99.90
19610;DHT22;9952;47.122;-1.638;2022-11-10T08:44:44;9.80;99.90
19610;DHT22;9952;47.122;-1.638;2022-11-10T08:49:24;10.30;99.90
19610;DHT22;9952;47.122;-1.638;2022-11-10T08:54:05;10.80;99.90
19610;DHT22;9952;47.122;-1.638;2022-11-10T08:58:46;11.30;99.90
19610;DHT22;9952;47.122;-1.638;2022-11-10T09:03:27;11.70;99.90
19610;DHT22;9952;47.122;-1.638;2022-11-10T09:08:08;12.10;99.90
19610;DHT22;9952;47.122;-1.638;2022-11-10T09:12:49;12.50;99.90
19610;DHT22;9952;47.122;-1.638;2022-11-10T09:17:30;12.70;99.90
19610;DHT22;9952;47.122;-1.638;2022-11-10T09:22:11;13.00;99.90
19610;DHT22;9952;47.122;-1.638;2022-11-10T09:26:52;13.30;99.90
19610;DHT22;9952;47.122;-1.638;2022-11-10T09:31:33;13.50;99.90
19610;DHT22;9952;47.122;-1.638;2022-11-10T09:36:13;13.90;99.90
19610;DHT22;9952;47.122;-1.638;2022-11-10T09:40:58;14.10;99.90
19610;DHT22;9952;47.122;-1.638;2022-11-10T09:45:45;14.40;99.90
19610;DHT22;9952;47.122;-1.638;2022-11-10T09:50:40;14.50;99.90
19610;DHT22;9952;47.122;-1.638;2022-11-10T09:55:39;14.70;99.90
19610;DHT22;9952;47.122;-1.638;2022-11-10T10:00:22;15.00;99.90
19610;DHT22;9952;47.122;-1.638;2022-11-10T10:10:21;15.40;99.90
19610;DHT22;9952;47.122;-1.638;2022-11-10T10:20:32;15.90;99.90
19610;DHT22;9952;47.122;-1.638;2022-11-10T10:25:21;16.30;99.90
19610;DHT22;9952;47.122;-1.638;2022-11-10T10:30:14;16.50;99.90
19610;DHT22;9952;47.122;-1.638;2022-11-10T10:34:55;16.80;99.90
19610;DHT22;9952;47.122;-1.638;2022-11-10T10:39:47;17.00;99.90
19610;DHT22;9952;47.122;-1.638;2022-11-10T10:44:28;17.30;99.90
19610;DHT22;9952;47.122;-1.638;2022-11-10T10:53:54;17.70;99.90
19610;DHT22;9952;47.122;-1.638;2022-11-10T10:58:54;17.80;99.90
19610;DHT22;9952;47.122;-1.638;2022-11-10T11:03:39;17.90;99.90
19610;DHT22;9952;47.122;-1.638;2022-11-10T11:08:21;18.20;99.90
19610;DHT22;9952;47.122;-1.638;2022-11-10T11:18:14;18.50;99.90
19610;DHT22;9952;47.122;-1.638;2022-11-10T11:23:30;18.60;99.90
19610;DHT22;9952;47.122;-1.638;2022-11-10T11:33:50;19.00;99.90
19610;DHT22;9952;47.122;-1.638;2022-11-10T11:39:11;19.10;99.90
19610;DHT22;9952;47.122;-1.638;2022-11-10T11:44:11;19.20;99.90
19610;DHT22;9952;47.122;-1.638;2022-11-10T11:54:16;19.40;99.90
19610;DHT22;9952;47.122;-1.638;2022-11-10T12:18:30;19.50;99.90
19610;DHT22;9952;47.122;-1.638;2022-11-10T12:23:33;19.60;99.90
19610;DHT22;9952;47.122;-1.638;2022-11-10T12:28:31;19.60;99.90
19610;DHT22;9952;47.122;-1.638;2022-11-10T12:33:33;19.30;99.90
19610;DHT22;9952;47.122;-1.638;2022-11-10T12:38:23;19.00;99.90
19610;DHT22;9952;47.122;-1.638;2022-11-10T12:43:17;19.30;99.90
19610;DHT22;9952;47.122;-1.638;2022-11-10T12:48:00;19.00;99.90
19610;DHT22;9952;47.122;-1.638;2022-11-10T12:52:48;18.70;99.90
19610;DHT22;9952;47.122;-1.638;2022-11-10T12:57:30;18.30;99.90
19610;DHT22;9952;47.122;-1.638;2022-11-10T13:02:30;18.50;99.90
19610;DHT22;9952;47.122;-1.638;2022-11-10T13:07:12;18.90;99.90
19610;DHT22;9952;47.122;-1.638;2022-11-10T13:16:58;19.50;99.90
19610;DHT22;9952;47.122;-1.638;2022-11-10T13:36:08;18.10;99.90
19610;DHT22;9952;47.122;-1.638;2022-11-10T13:40:49;18.20;99.90
19610;DHT22;9952;47.122;-1.638;2022-11-10T13:45:41;18.20;99.90
19610;DHT22;9952;47.122;-1.638;2022-11-10T13:56:16;18.60;99.90
19610;DHT22;9952;47.122;-1.638;2022-11-10T14:01:19;18.60;99.90
19610;DHT22;9952;47.122;-1.638;2022-11-10T14:06:04;18.30;99.90
19610;DHT22;9952;47.122;-1.638;2022-11-10T14:10:57;18.00;99.90
19610;DHT22;9952;47.122;-1.638;2022-11-10T14:15:42;17.70;99.90
19610;DHT22;9952;47.122;-1.638;2022-11-10T14:20:29;17.60;99.90
19610;DHT22;9952;47.122;-1.638;2022-11-10T14:25:25;17.40;99.90
19610;DHT22;9952;47.122;-1.638;2022-11-10T14:30:26;17.40;99.90
19610;DHT22;9952;47.122;-1.638;2022-11-10T14:35:18;17.60;99.90
19610;DHT22;9952;47.122;-1.638;2022-11-10T14:40:00;17.60;99.90
19610;DHT22;9952;47.122;-1.638;2022-11-10T14:44:42;17.50;99.90
19610;DHT22;9952;47.122;-1.638;2022-11-10T14:49:24;17.30;99.90
19610;DHT22;9952;47.122;-1.638;2022-11-10T14:54:08;17.20;99.90
19610;DHT22;9952;47.122;-1.638;2022-11-10T14:58:51;17.20;99.90
19610;DHT22;9952;47.122;-1.638;2022-11-10T15:03:39;17.40;99.90
19610;DHT22;9952;47.122;-1.638;2022-11-10T15:08:20;17.40;99.90
19610;DHT22;9952;47.122;-1.638;2022-11-10T15:17:52;16.90;99.90
19610;DHT22;9952;47.122;-1.638;2022-11-10T15:22:34;16.80;99.90
19610;DHT22;9952;47.122;-1.638;2022-11-10T15:27:27;16.80;99.90
19610;DHT22;9952;47.122;-1.638;2022-11-10T15:32:15;16.80;99.90
19610;DHT22;9952;47.122;-1.638;2022-11-10T15:37:31;16.70;99.90
19610;DHT22;9952;47.122;-1.638;2022-11-10T15:42:21;16.50;99.90
19610;DHT22;9952;47.122;-1.638;2022-11-10T15:47:04;16.50;99.90
19610;DHT22;9952;47.122;-1.638;2022-11-10T15:51:45;16.40;99.90
19610;DHT22;9952;47.122;-1.638;2022-11-10T15:56:26;16.40;99.90
19610;DHT22;9952;47.122;-1.638;2022-11-10T16:01:10;16.30;99.90
19610;DHT22;9952;47.122;-1.638;2022-11-10T16:05:51;16.10;99.90
19610;DHT22;9952;47.122;-1.638;2022-11-10T16:10:32;16.10;99.90
19610;DHT22;9952;47.122;-1.638;2022-11-10T16:15:17;15.90;99.90
19610;DHT22;9952;47.122;-1.638;2022-11-10T16:20:04;15.90;99.90
19610;DHT22;9952;47.122;-1.638;2022-11-10T16:25:04;15.80;99.90
19610;DHT22;9952;47.122;-1.638;2022-11-10T16:29:45;15.60;99.90
19610;DHT22;9952;47.122;-1.638;2022-11-10T16:34:27;15.50;99.90
19610;DHT22;9952;47.122;-1.638;2022-11-10T16:39:11;15.40;99.90
19610;DHT22;9952;47.122;-1.638;2022-11-10T16:43:55;15.30;99.90
19610;DHT22;9952;47.122;-1.638;2022-11-10T16:48:56;15.20;99.90
19610;DHT22;9952;47.122;-1.638;2022-11-10T16:53:44;15.00;99.90
19610;DHT22;9952;47.122;-1.638;2022-11-10T16:58:42;14.90;99.90
19610;DHT22;9952;47.122;-1.638;2022-11-10T17:03:35;14.60;99.90
19610;DHT22;9952;47.122;-1.638;2022-11-10T17:08:21;14.40;99.90
19610;DHT22;9952;47.122;-1.638;2022-11-10T17:13:02;14.30;99.90
19610;DHT22;9952;47.122;-1.638;2022-11-10T17:17:47;14.10;99.90
19610;DHT22;9952;47.122;-1.638;2022-11-10T17:22:30;14.10;99.90
19610;DHT22;9952;47.122;-1.638;2022-11-10T17:27:12;14.00;99.90
19610;DHT22;9952;47.122;-1.638;2022-11-10T17:31:53;13.80;99.90
19610;DHT22;9952;47.122;-1.638;2022-11-10T17:36:35;13.70;99.90
19610;DHT22;9952;47.122;-1.638;2022-11-10T17:41:17;13.70;99.90
19610;DHT22;9952;47.122;-1.638;2022-11-10T17:45:58;13.60;99.90
19610;DHT22;9952;47.122;-1.638;2022-11-10T17:50:41;13.50;99.90
19610;DHT22;9952;47.122;-1.638;2022-11-10T17:55:24;13.40;99.90
19610;DHT22;9952;47.122;-1.638;2022-11-10T18:00:05;13.30;99.90
19610;DHT22;9952;47.122;-1.638;2022-11-10T18:04:46;13.30;99.90
19610;DHT22;9952;47.122;-1.638;2022-11-10T18:09:27;13.30;99.90
19610;DHT22;9952;47.122;-1.638;2022-11-10T18:14:09;13.30;99.90
19610;DHT22;9952;47.122;-1.638;2022-11-10T18:18:50;13.40;99.90
19610;DHT22;9952;47.122;-1.638;2022-11-10T18:23:31;13.40;99.90
19610;DHT22;9952;47.122;-1.638;2022-11-10T18:28:13;13.40;99.90
19610;DHT22;9952;47.122;-1.638;2022-11-10T18:32:54;13.40;99.90
19610;DHT22;9952;47.122;-1.638;2022-11-10T18:37:35;13.30;99.90
19610;DHT22;9952;47.122;-1.638;2022-11-10T18:42:15;13.30;99.90
19610;DHT22;9952;47.122;-1.638;2022-11-10T18:46:56;13.20;99.90
19610;DHT22;9952;47.122;-1.638;2022-11-10T18:51:37;13.20;99.90
19610;DHT22;9952;47.122;-1.638;2022-11-10T18:56:18;13.10;99.90
19610;DHT22;9952;47.122;-1.638;2022-11-10T19:01:04;13.00;99.90
19610;DHT22;9952;47.122;-1.638;2022-11-10T19:05:45;12.90;99.90
19610;DHT22;9952;47.122;-1.638;2022-11-10T19:10:30;12.90;99.90
19610;DHT22;9952;47.122;-1.638;2022-11-10T19:15:11;12.80;99.90
19610;DHT22;9952;47.122;-1.638;2022-11-10T19:19:51;12.70;99.90
19610;DHT22;9952;47.122;-1.638;2022-11-10T19:24:32;12.70;99.90
19610;DHT22;9952;47.122;-1.638;2022-11-10T19:29:13;12.60;99.90
19610;DHT22;9952;47.122;-1.638;2022-11-10T19:33:56;12.50;99.90
19610;DHT22;9952;47.122;-1.638;2022-11-10T19:38:37;12.50;99.90
19610;DHT22;9952;47.122;-1.638;2022-11-10T19:43:18;12.40;99.90
19610;DHT22;9952;47.122;-1.638;2022-11-10T19:47:58;12.40;99.90
19610;DHT22;9952;47.122;-1.638;2022-11-10T19:52:39;12.30;99.90
19610;DHT22;9952;47.122;-1.638;2022-11-10T19:57:20;12.30;99.90
19610;DHT22;9952;47.122;-1.638;2022-11-10T20:02:02;12.20;99.90
19610;DHT22;9952;47.122;-1.638;2022-11-10T20:06:43;12.20;99.90
19610;DHT22;9952;47.122;-1.638;2022-11-10T20:11:25;12.10;99.90
19610;DHT22;9952;47.122;-1.638;2022-11-10T20:16:07;12.10;99.90
19610;DHT22;9952;47.122;-1.638;2022-11-10T20:20:48;12.00;99.90
19610;DHT22;9952;47.122;-1.638;2022-11-10T20:25:29;12.00;99.90
19610;DHT22;9952;47.122;-1.638;2022-11-10T20:30:11;11.90;99.90
19610;DHT22;9952;47.122;-1.638;2022-11-10T20:34:51;11.90;99.90
19610;DHT22;9952;47.122;-1.638;2022-11-10T20:39:32;11.80;99.90
19610;DHT22;9952;47.122;-1.638;2022-11-10T20:44:13;11.80;99.90
19610;DHT22;9952;47.122;-1.638;2022-11-10T20:48:54;11.80;99.90
19610;DHT22;9952;47.122;-1.638;2022-11-10T20:53:35;11.70;99.90
19610;DHT22;9952;47.122;-1.638;2022-11-10T20:58:16;11.60;99.90
19610;DHT22;9952;47.122;-1.638;2022-11-10T21:02:57;11.50;99.90
19610;DHT22;9952;47.122;-1.638;2022-11-10T21:07:38;11.50;99.90
19610;DHT22;9952;47.122;-1.638;2022-11-10T21:12:18;11.50;99.90
19610;DHT22;9952;47.122;-1.638;2022-11-10T21:17:18;11.50;99.90
19610;DHT22;9952;47.122;-1.638;2022-11-10T21:21:59;11.50;99.90
19610;DHT22;9952;47.122;-1.638;2022-11-10T21:26:39;11.50;99.90
19610;DHT22;9952;47.122;-1.638;2022-11-10T21:31:20;11.40;99.90
19610;DHT22;9952;47.122;-1.638;2022-11-10T21:36:06;11.40;99.90
19610;DHT22;9952;47.122;-1.638;2022-11-10T21:40:47;11.50;99.90
19610;DHT22;9952;47.122;-1.638;2022-11-10T21:45:28;11.50;99.90
19610;DHT22;9952;47.122;-1.638;2022-11-10T21:50:08;11.40;99.90
19610;DHT22;9952;47.122;-1.638;2022-11-10T21:54:49;11.40;99.90
19610;DHT22;9952;47.122;-1.638;2022-11-10T21:59:30;11.40;99.90
19610;DHT22;9952;47.122;-1.638;2022-11-10T22:04:11;11.40;99.90
19610;DHT22;9952;47.122;-1.638;2022-11-10T22:08:51;11.40;99.90
19610;DHT22;9952;47.122;-1.638;2022-11-10T22:13:32;11.40;99.90
19610;DHT22;9952;47.122;-1.638;2022-11-10T22:18:31;11.30;99.90
19610;DHT22;9952;47.122;-1.638;2022-11-10T22:23:18;11.30;99.90
19610;DHT22;9952;47.122;-1.638;2022-11-10T22:28:18;11.30;99.90
19610;DHT22;9952;47.122;-1.638;2022-11-10T22:32:59;11.30;99.90
19610;DHT22;9952;47.122;-1.638;2022-11-10T22:38:06;11.20;99.90
19610;DHT22;9952;47.122;-1.638;2022-11-10T22:42:47;11.20;99.90
19610;DHT22;9952;47.122;-1.638;2022-11-10T22:47:46;11.20;99.90
19610;DHT22;9952;47.122;-1.638;2022-11-10T22:52:45;11.20;99.90
19610;DHT22;9952;47.122;-1.638;2022-11-10T22:57:26;11.20;99.90
19610;DHT22;9952;47.122;-1.638;2022-11-10T23:02:07;11.10;99.90
19610;DHT22;9952;47.122;-1.638;2022-11-10T23:06:47;11.00;99.90
19610;DHT22;9952;47.122;-1.638;2022-11-10T23:11:30;11.00;99.90
19610;DHT22;9952;47.122;-1.638;2022-11-10T23:16:20;11.00;99.90
19610;DHT22;9952;47.122;-1.638;2022-11-10T23:21:04;11.00;99.90
19610;DHT22;9952;47.122;-1.638;2022-11-10T23:25:54;11.00;99.90
19610;DHT22;9952;47.122;-1.638;2022-11-10T23:30:35;10.90;99.90
19610;DHT22;9952;47.122;-1.638;2022-11-10T23:35:16;10.80;99.90
19610;DHT22;9952;47.122;-1.638;2022-11-10T23:39:57;10.80;99.90
19610;DHT22;9952;47.122;-1.638;2022-11-10T23:44:37;10.70;99.90
19610;DHT22;9952;47.122;-1.638;2022-11-10T23:49:18;10.70;99.90
19610;DHT22;9952;47.122;-1.638;2022-11-10T23:53:59;10.60;99.90
19610;DHT22;9952;47.122;-1.638;2022-11-10T23:58:40;10.60;99.90
